sensor_id;sensor_type;location;lat;lon;timestamp;P1;durP1;ratioP1;P2;durP2;ratioP2
5026;SDS011;2532;52.480;13.354;2023-06-26T04:02:30;19.03;;;15.37;;
5026;SDS011;2532;52.480;13.354;2023-06-26T04:04:57;18.77;;;16.70;;
5026;SDS011;2532;52.480;13.354;2023-06-26T04:07:25;19.17;;;16.20;;
5026;SDS011;2532;52.480;13.354;2023-06-26T04:09:52;18.90;;;15.77;;
5026;SDS011;2532;52.480;13.354;2023-06-26T04:12:19;17.27;;;15.37;;
5026;SDS011;2532;52.480;13.354;2023-06-26T04:14:46;28.00;;;18.53;;
5026;SDS011;2532;52.480;13.354;2023-06-26T04:17:13;20.60;;;16.80;;
5026;SDS011;2532;52.480;13.354;2023-06-26T04:19:41;20.13;;;17.00;;
5026;SDS011;2532;52.480;13.354;2023-06-26T04:22:08;21.30;;;16.83;;
5026;SDS011;2532;52.480;13.354;2023-06-26T04:24:35;22.83;;;16.63;;
5026;SDS011;2532;52.480;13.354;2023-06-26T04:27:02;21.50;;;17.77;;
5026;SDS011;2532;52.480;13.354;2023-06-26T04:29:29;19.43;;;16.60;;
5026;SDS011;2532;52.480;13.354;2023-06-26T04:31:56;22.77;;;18.67;;
5026;SDS011;2532;52.480;13.354;2023-06-26T04:34:24;19.53;;;15.90;;
5026;SDS011;2532;52.480;13.354;2023-06-26T04:36:52;20.27;;;17.40;;
5026;SDS011;2532;52.480;13.354;2023-06-26T04:39:19;20.17;;;16.73;;
5026;SDS011;2532;52.480;13.354;2023-06-26T04:41:46;19.40;;;16.40;;
5026;SDS011;2532;52.480;13.354;2023-06-26T04:44:13;23.97;;;16.20;;
5026;SDS011;2532;52.480;13.354;2023-06-26T04:46:40;20.17;;;16.40;;
5026;SDS011;2532;52.480;13.354;2023-06-26T04:49:07;24.00;;;17.00;;
5026;SDS011;2532;52.480;13.354;2023-06-26T04:51:34;19.50;;;16.53;;
5026;SDS011;2532;52.480;13.354;2023-06-26T04:54:07;19.63;;;16.00;;
5026;SDS011;2532;52.480;13.354;2023-06-26T04:56:34;19.57;;;16.00;;
5026;SDS011;2532;52.480;13.354;2023-06-26T04:59:01;18.30;;;15.70;;
5026;SDS011;2532;52.480;13.354;2023-06-26T05:01:28;19.00;;;15.10;;
5026;SDS011;2532;52.480;13.354;2023-06-26T05:03:57;21.73;;;16.90;;
5026;SDS011;2532;52.480;13.354;2023-06-26T05:06:24;18.10;;;16.20;;
5026;SDS011;2532;52.480;13.354;2023-06-26T05:08:51;18.60;;;15.63;;
5026;SDS011;2532;52.480;13.354;2023-06-26T05:11:19;21.70;;;18.60;;
5026;SDS011;2532;52.480;13.354;2023-06-26T05:13:46;17.43;;;15.60;;
5026;SDS011;2532;52.480;13.354;2023-06-26T05:16:13;19.20;;;15.73;;
5026;SDS011;2532;52.480;13.354;2023-06-26T05:18:40;18.33;;;16.03;;
5026;SDS011;2532;52.480;13.354;2023-06-26T05:21:07;19.33;;;14.93;;
5026;SDS011;2532;52.480;13.354;2023-06-26T05:23:34;18.70;;;14.97;;
5026;SDS011;2532;52.480;13.354;2023-06-26T05:26:02;18.10;;;15.50;;
5026;SDS011;2532;52.480;13.354;2023-06-26T05:28:31;20.30;;;15.10;;
5026;SDS011;2532;52.480;13.354;2023-06-26T05:31:01;19.10;;;14.90;;
5026;SDS011;2532;52.480;13.354;2023-06-26T05:33:30;17.23;;;15.33;;
5026;SDS011;2532;52.480;13.354;2023-06-26T05:36:00;19.13;;;14.73;;
5026;SDS011;2532;52.480;13.354;2023-06-26T05:38:30;23.50;;;15.93;;
5026;SDS011;2532;52.480;13.354;2023-06-26T05:40:58;16.47;;;14.27;;
5026;SDS011;2532;52.480;13.354;2023-06-26T05:43:25;21.27;;;15.10;;
5026;SDS011;2532;52.480;13.354;2023-06-26T05:45:53;17.70;;;14.80;;
5026;SDS011;2532;52.480;13.354;2023-06-26T05:48:20;21.03;;;18.77;;
5026;SDS011;2532;52.480;13.354;2023-06-26T05:50:47;17.43;;;15.00;;
5026;SDS011;2532;52.480;13.354;2023-06-26T05:53:15;16.73;;;14.00;;
5026;SDS011;2532;52.480;13.354;2023-06-26T05:55:42;16.67;;;13.80;;
5026;SDS011;2532;52.480;13.354;2023-06-26T05:58:09;15.30;;;13.70;;
5026;SDS011;2532;52.480;13.354;2023-06-26T06:00:37;15.13;;;12.40;;
5026;SDS011;2532;52.480;13.354;2023-06-26T06:03:06;17.50;;;11.87;;
5026;SDS011;2532;52.480;13.354;2023-06-26T06:05:36;12.57;;;11.27;;
5026;SDS011;2532;52.480;13.354;2023-06-26T06:08:03;15.17;;;11.47;;
5026;SDS011;2532;52.480;13.354;2023-06-26T06:10:30;20.30;;;11.10;;
5026;SDS011;2532;52.480;13.354;2023-06-26T06:12:57;13.37;;;10.57;;
5026;SDS011;2532;52.480;13.354;2023-06-26T06:15:23;13.70;;;10.37;;
5026;SDS011;2532;52.480;13.354;2023-06-26T06:17:50;11.33;;;10.07;;
5026;SDS011;2532;52.480;13.354;2023-06-26T06:20:19;18.93;;;11.70;;
5026;SDS011;2532;52.480;13.354;2023-06-26T06:22:46;13.30;;;9.90;;
5026;SDS011;2532;52.480;13.354;2023-06-26T06:25:14;12.50;;;10.73;;
5026;SDS011;2532;52.480;13.354;2023-06-26T06:27:41;14.03;;;10.73;;
5026;SDS011;2532;52.480;13.354;2023-06-26T06:30:08;16.33;;;10.27;;
5026;SDS011;2532;52.480;13.354;2023-06-26T06:32:36;11.27;;;9.87;;
5026;SDS011;2532;52.480;13.354;2023-06-26T06:35:03;13.43;;;10.50;;
5026;SDS011;2532;52.480;13.354;2023-06-26T06:37:36;13.80;;;10.13;;
5026;SDS011;2532;52.480;13.354;2023-06-26T06:40:03;18.80;;;9.87;;
5026;SDS011;2532;52.480;13.354;2023-06-26T06:42:32;13.00;;;9.70;;
5026;SDS011;2532;52.480;13.354;2023-06-26T06:44:59;10.00;;;9.00;;
5026;SDS011;2532;52.480;13.354;2023-06-26T06:47:26;9.97;;;8.90;;
5026;SDS011;2532;52.480;13.354;2023-06-26T06:49:53;12.70;;;10.10;;
5026;SDS011;2532;52.480;13.354;2023-06-26T06:52:20;10.70;;;9.60;;
5026;SDS011;2532;52.480;13.354;2023-06-26T06:54:55;12.20;;;9.53;;
5026;SDS011;2532;52.480;13.354;2023-06-26T06:57:24;11.27;;;9.10;;
5026;SDS011;2532;52.480;13.354;2023-06-26T06:59:54;11.83;;;10.20;;
5026;SDS011;2532;52.480;13.354;2023-06-26T07:02:20;11.63;;;9.20;;
5026;SDS011;2532;52.480;13.354;2023-06-26T07:04:47;11.53;;;10.33;;
5026;SDS011;2532;52.480;13.354;2023-06-26T07:07:17;10.03;;;9.00;;
5026;SDS011;2532;52.480;13.354;2023-06-26T07:09:44;10.40;;;8.87;;
5026;SDS011;2532;52.480;13.354;2023-06-26T07:12:13;13.40;;;9.80;;
5026;SDS011;2532;52.480;13.354;2023-06-26T07:14:40;11.00;;;9.37;;
5026;SDS011;2532;52.480;13.354;2023-06-26T07:17:07;16.37;;;9.40;;
5026;SDS011;2532;52.480;13.354;2023-06-26T07:19:33;13.03;;;9.13;;
5026;SDS011;2532;52.480;13.354;2023-06-26T07:22:00;12.30;;;9.57;;
5026;SDS011;2532;52.480;13.354;2023-06-26T07:24:27;12.00;;;8.67;;
5026;SDS011;2532;52.480;13.354;2023-06-26T07:26:54;9.67;;;8.67;;
5026;SDS011;2532;52.480;13.354;2023-06-26T07:29:22;10.37;;;8.40;;
5026;SDS011;2532;52.480;13.354;2023-06-26T07:31:49;11.77;;;8.13;;
5026;SDS011;2532;52.480;13.354;2023-06-26T07:34:16;11.03;;;8.17;;
5026;SDS011;2532;52.480;13.354;2023-06-26T07:36:43;13.83;;;7.80;;
5026;SDS011;2532;52.480;13.354;2023-06-26T07:39:10;9.17;;;8.27;;
5026;SDS011;2532;52.480;13.354;2023-06-26T07:41:37;12.93;;;8.00;;
5026;SDS011;2532;52.480;13.354;2023-06-26T07:44:04;12.83;;;7.87;;
5026;SDS011;2532;52.480;13.354;2023-06-26T07:46:32;8.63;;;7.73;;
5026;SDS011;2532;52.480;13.354;2023-06-26T07:48:59;10.70;;;8.57;;
5026;SDS011;2532;52.480;13.354;2023-06-26T07:51:26;8.40;;;7.53;;
5026;SDS011;2532;52.480;13.354;2023-06-26T07:53:53;10.27;;;7.60;;
5026;SDS011;2532;52.480;13.354;2023-06-26T07:56:20;9.20;;;8.07;;
5026;SDS011;2532;52.480;13.354;2023-06-26T07:58:47;11.20;;;7.20;;
5026;SDS011;2532;52.480;13.354;2023-06-26T08:01:14;13.07;;;8.73;;
5026;SDS011;2532;52.480;13.354;2023-06-26T08:03:42;11.40;;;8.53;;
5026;SDS011;2532;52.480;13.354;2023-06-26T08:06:09;25.07;;;11.07;;
5026;SDS011;2532;52.480;13.354;2023-06-26T08:08:36;10.00;;;7.93;;
5026;SDS011;2532;52.480;13.354;2023-06-26T08:11:03;11.03;;;8.17;;
5026;SDS011;2532;52.480;13.354;2023-06-26T08:13:30;9.27;;;7.70;;
5026;SDS011;2532;52.480;13.354;2023-06-26T08:15:56;11.73;;;7.70;;
5026;SDS011;2532;52.480;13.354;2023-06-26T08:18:23;8.73;;;6.43;;
5026;SDS011;2532;52.480;13.354;2023-06-26T08:20:52;8.73;;;6.73;;
5026;SDS011;2532;52.480;13.354;2023-06-26T08:23:19;7.50;;;6.70;;
5026;SDS011;2532;52.480;13.354;2023-06-26T08:25:47;7.80;;;6.77;;
5026;SDS011;2532;52.480;13.354;2023-06-26T08:28:13;10.40;;;6.53;;
5026;SDS011;2532;52.480;13.354;2023-06-26T08:30:40;7.67;;;6.77;;
5026;SDS011;2532;52.480;13.354;2023-06-26T08:33:07;7.40;;;6.30;;
5026;SDS011;2532;52.480;13.354;2023-06-26T08:35:37;7.67;;;5.90;;
5026;SDS011;2532;52.480;13.354;2023-06-26T08:38:05;7.30;;;6.60;;
5026;SDS011;2532;52.480;13.354;2023-06-26T08:40:34;7.20;;;6.30;;
5026;SDS011;2532;52.480;13.354;2023-06-26T08:43:01;7.83;;;7.07;;
5026;SDS011;2532;52.480;13.354;2023-06-26T08:45:29;8.43;;;6.60;;
5026;SDS011;2532;52.480;13.354;2023-06-26T08:47:57;7.60;;;6.17;;
5026;SDS011;2532;52.480;13.354;2023-06-26T08:50:26;7.60;;;6.67;;
5026;SDS011;2532;52.480;13.354;2023-06-26T08:52:58;8.23;;;6.53;;
5026;SDS011;2532;52.480;13.354;2023-06-26T08:55:33;7.30;;;6.60;;
5026;SDS011;2532;52.480;13.354;2023-06-26T08:58:04;7.10;;;5.90;;
5026;SDS011;2532;52.480;13.354;2023-06-26T09:00:31;10.03;;;5.97;;
5026;SDS011;2532;52.480;13.354;2023-06-26T09:02:58;7.03;;;6.33;;
5026;SDS011;2532;52.480;13.354;2023-06-26T09:05:26;8.10;;;6.30;;
5026;SDS011;2532;52.480;13.354;2023-06-26T09:07:53;7.90;;;7.10;;
5026;SDS011;2532;52.480;13.354;2023-06-26T09:10:21;6.10;;;5.50;;
5026;SDS011;2532;52.480;13.354;2023-06-26T09:12:49;6.47;;;5.30;;
5026;SDS011;2532;52.480;13.354;2023-06-26T09:15:19;6.90;;;5.80;;
5026;SDS011;2532;52.480;13.354;2023-06-26T09:17:47;7.67;;;6.30;;
5026;SDS011;2532;52.480;13.354;2023-06-26T09:20:14;6.60;;;5.43;;
5026;SDS011;2532;52.480;13.354;2023-06-26T09:22:42;7.40;;;5.87;;
5026;SDS011;2532;52.480;13.354;2023-06-26T09:25:13;5.57;;;4.80;;
5026;SDS011;2532;52.480;13.354;2023-06-26T09:27:40;6.13;;;4.93;;
5026;SDS011;2532;52.480;13.354;2023-06-26T09:30:12;6.20;;;5.60;;
5026;SDS011;2532;52.480;13.354;2023-06-26T09:32:43;6.17;;;5.43;;
5026;SDS011;2532;52.480;13.354;2023-06-26T09:35:10;7.23;;;4.90;;
5026;SDS011;2532;52.480;13.354;2023-06-26T09:37:37;5.67;;;4.67;;
5026;SDS011;2532;52.480;13.354;2023-06-26T09:40:05;5.63;;;4.83;;
5026;SDS011;2532;52.480;13.354;2023-06-26T09:42:33;7.13;;;5.60;;
5026;SDS011;2532;52.480;13.354;2023-06-26T09:45:01;6.53;;;5.30;;
5026;SDS011;2532;52.480;13.354;2023-06-26T09:47:31;6.30;;;5.40;;
5026;SDS011;2532;52.480;13.354;2023-06-26T09:50:01;6.90;;;5.93;;
5026;SDS011;2532;52.480;13.354;2023-06-26T09:52:31;5.47;;;4.97;;
5026;SDS011;2532;52.480;13.354;2023-06-26T09:55:09;6.07;;;5.40;;
5026;SDS011;2532;52.480;13.354;2023-06-26T09:57:37;7.40;;;5.67;;
5026;SDS011;2532;52.480;13.354;2023-06-26T10:00:08;6.17;;;5.57;;
5026;SDS011;2532;52.480;13.354;2023-06-26T10:02:38;7.83;;;6.37;;
5026;SDS011;2532;52.480;13.354;2023-06-26T10:05:05;8.20;;;6.10;;
5026;SDS011;2532;52.480;13.354;2023-06-26T10:07:32;8.77;;;6.33;;
5026;SDS011;2532;52.480;13.354;2023-06-26T10:10:01;6.20;;;5.50;;
5026;SDS011;2532;52.480;13.354;2023-06-26T10:12:29;7.60;;;5.90;;
5026;SDS011;2532;52.480;13.354;2023-06-26T10:14:58;9.53;;;8.30;;
5026;SDS011;2532;52.480;13.354;2023-06-26T10:17:30;7.07;;;6.00;;
5026;SDS011;2532;52.480;13.354;2023-06-26T10:20:06;11.90;;;7.00;;
5026;SDS011;2532;52.480;13.354;2023-06-26T10:22:36;9.60;;;5.63;;
5026;SDS011;2532;52.480;13.354;2023-06-26T10:25:08;9.10;;;6.70;;
5026;SDS011;2532;52.480;13.354;2023-06-26T10:27:38;7.23;;;6.47;;
5026;SDS011;2532;52.480;13.354;2023-06-26T10:30:11;12.80;;;6.70;;
5026;SDS011;2532;52.480;13.354;2023-06-26T10:32:40;7.83;;;6.60;;
5026;SDS011;2532;52.480;13.354;2023-06-26T10:35:09;8.73;;;7.00;;
5026;SDS011;2532;52.480;13.354;2023-06-26T10:37:43;6.97;;;5.90;;
5026;SDS011;2532;52.480;13.354;2023-06-26T10:40:10;10.33;;;7.27;;
5026;SDS011;2532;52.480;13.354;2023-06-26T10:42:38;7.80;;;6.40;;
5026;SDS011;2532;52.480;13.354;2023-06-26T10:45:10;7.60;;;5.83;;
5026;SDS011;2532;52.480;13.354;2023-06-26T10:47:39;9.30;;;6.00;;
5026;SDS011;2532;52.480;13.354;2023-06-26T10:50:23;7.23;;;6.50;;
5026;SDS011;2532;52.480;13.354;2023-06-26T10:53:07;8.30;;;5.90;;
5026;SDS011;2532;52.480;13.354;2023-06-26T10:55:35;7.97;;;6.63;;
5026;SDS011;2532;52.480;13.354;2023-06-26T10:58:02;8.17;;;7.33;;
5026;SDS011;2532;52.480;13.354;2023-06-26T11:00:29;6.87;;;5.60;;
5026;SDS011;2532;52.480;13.354;2023-06-26T11:02:57;7.97;;;6.13;;
5026;SDS011;2532;52.480;13.354;2023-06-26T11:05:28;7.27;;;6.20;;
5026;SDS011;2532;52.480;13.354;2023-06-26T11:08:05;7.27;;;6.50;;
5026;SDS011;2532;52.480;13.354;2023-06-26T11:10:49;7.40;;;6.70;;
5026;SDS011;2532;52.480;13.354;2023-06-26T11:13:18;8.30;;;6.00;;
5026;SDS011;2532;52.480;13.354;2023-06-26T11:15:46;9.63;;;6.60;;
5026;SDS011;2532;52.480;13.354;2023-06-26T11:18:13;8.33;;;7.10;;
5026;SDS011;2532;52.480;13.354;2023-06-26T11:20:43;8.43;;;6.67;;
5026;SDS011;2532;52.480;13.354;2023-06-26T11:23:10;9.00;;;6.30;;
5026;SDS011;2532;52.480;13.354;2023-06-26T11:25:38;11.80;;;6.70;;
5026;SDS011;2532;52.480;13.354;2023-06-26T11:28:05;7.60;;;5.90;;
5026;SDS011;2532;52.480;13.354;2023-06-26T11:30:36;7.30;;;5.97;;
5026;SDS011;2532;52.480;13.354;2023-06-26T11:33:05;6.50;;;5.90;;
5026;SDS011;2532;52.480;13.354;2023-06-26T11:35:32;9.30;;;6.83;;
5026;SDS011;2532;52.480;13.354;2023-06-26T11:38:02;6.20;;;5.60;;
5026;SDS011;2532;52.480;13.354;2023-06-26T11:40:30;7.37;;;6.63;;
5026;SDS011;2532;52.480;13.354;2023-06-26T11:42:59;9.63;;;6.47;;
5026;SDS011;2532;52.480;13.354;2023-06-26T11:45:27;6.57;;;5.83;;
5026;SDS011;2532;52.480;13.354;2023-06-26T11:47:55;8.03;;;6.40;;
5026;SDS011;2532;52.480;13.354;2023-06-26T11:50:22;8.13;;;6.40;;
5026;SDS011;2532;52.480;13.354;2023-06-26T11:52:52;10.40;;;6.37;;
5026;SDS011;2532;52.480;13.354;2023-06-26T11:55:22;11.73;;;6.53;;
5026;SDS011;2532;52.480;13.354;2023-06-26T11:57:49;6.80;;;6.10;;
5026;SDS011;2532;52.480;13.354;2023-06-26T12:00:19;9.27;;;6.87;;
5026;SDS011;2532;52.480;13.354;2023-06-26T12:02:47;7.80;;;6.00;;
5026;SDS011;2532;52.480;13.354;2023-06-26T12:05:15;12.70;;;8.40;;
5026;SDS011;2532;52.480;13.354;2023-06-26T12:07:43;8.17;;;7.00;;
5026;SDS011;2532;52.480;13.354;2023-06-26T12:10:12;10.80;;;7.20;;
5026;SDS011;2532;52.480;13.354;2023-06-26T12:12:42;9.13;;;6.90;;
5026;SDS011;2532;52.480;13.354;2023-06-26T12:15:12;7.43;;;6.63;;
5026;SDS011;2532;52.480;13.354;2023-06-26T12:17:40;6.87;;;6.20;;
5026;SDS011;2532;52.480;13.354;2023-06-26T12:20:16;10.30;;;7.40;;
5026;SDS011;2532;52.480;13.354;2023-06-26T12:22:45;9.47;;;7.70;;
5026;SDS011;2532;52.480;13.354;2023-06-26T12:25:13;9.77;;;7.10;;
5026;SDS011;2532;52.480;13.354;2023-06-26T12:27:44;9.20;;;7.00;;
5026;SDS011;2532;52.480;13.354;2023-06-26T12:30:11;9.90;;;7.27;;
5026;SDS011;2532;52.480;13.354;2023-06-26T12:32:39;8.40;;;7.10;;
5026;SDS011;2532;52.480;13.354;2023-06-26T12:35:06;8.23;;;7.43;;
5026;SDS011;2532;52.480;13.354;2023-06-26T12:37:36;20.90;;;9.03;;
5026;SDS011;2532;52.480;13.354;2023-06-26T12:40:10;8.20;;;7.30;;
5026;SDS011;2532;52.480;13.354;2023-06-26T12:42:44;8.63;;;6.87;;
5026;SDS011;2532;52.480;13.354;2023-06-26T12:45:12;8.20;;;7.40;;
5026;SDS011;2532;52.480;13.354;2023-06-26T12:47:40;10.00;;;6.60;;
5026;SDS011;2532;52.480;13.354;2023-06-26T12:50:07;8.90;;;7.03;;
5026;SDS011;2532;52.480;13.354;2023-06-26T12:52:35;9.10;;;8.20;;
5026;SDS011;2532;52.480;13.354;2023-06-26T12:55:02;9.80;;;7.60;;
5026;SDS011;2532;52.480;13.354;2023-06-26T12:57:29;14.17;;;8.10;;
5026;SDS011;2532;52.480;13.354;2023-06-26T12:59:57;11.13;;;7.40;;
5026;SDS011;2532;52.480;13.354;2023-06-26T13:02:26;8.50;;;7.43;;
5026;SDS011;2532;52.480;13.354;2023-06-26T13:04:52;13.47;;;8.60;;
5026;SDS011;2532;52.480;13.354;2023-06-26T13:07:19;12.60;;;8.83;;
5026;SDS011;2532;52.480;13.354;2023-06-26T13:09:50;11.40;;;8.33;;
5026;SDS011;2532;52.480;13.354;2023-06-26T13:12:16;14.03;;;7.20;;
5026;SDS011;2532;52.480;13.354;2023-06-26T13:14:43;8.57;;;7.40;;
5026;SDS011;2532;52.480;13.354;2023-06-26T13:17:12;9.07;;;8.00;;
5026;SDS011;2532;52.480;13.354;2023-06-26T13:19:39;9.87;;;7.90;;
5026;SDS011;2532;52.480;13.354;2023-06-26T13:22:06;13.47;;;9.07;;
5026;SDS011;2532;52.480;13.354;2023-06-26T13:24:33;12.30;;;8.67;;
5026;SDS011;2532;52.480;13.354;2023-06-26T13:26:59;10.43;;;8.07;;
5026;SDS011;2532;52.480;13.354;2023-06-26T13:29:27;10.53;;;9.40;;
5026;SDS011;2532;52.480;13.354;2023-06-26T13:31:55;8.27;;;7.40;;
5026;SDS011;2532;52.480;13.354;2023-06-26T13:34:23;10.13;;;8.30;;
5026;SDS011;2532;52.480;13.354;2023-06-26T13:36:52;9.13;;;8.20;;
5026;SDS011;2532;52.480;13.354;2023-06-26T13:39:19;10.33;;;8.23;;
5026;SDS011;2532;52.480;13.354;2023-06-26T13:41:46;10.27;;;8.03;;
5026;SDS011;2532;52.480;13.354;2023-06-26T13:44:13;10.00;;;7.60;;
5026;SDS011;2532;52.480;13.354;2023-06-26T13:46:40;8.70;;;7.80;;
5026;SDS011;2532;52.480;13.354;2023-06-26T13:49:07;9.07;;;8.03;;
5026;SDS011;2532;52.480;13.354;2023-06-26T13:51:35;9.70;;;7.80;;
5026;SDS011;2532;52.480;13.354;2023-06-26T13:54:03;12.37;;;8.50;;
5026;SDS011;2532;52.480;13.354;2023-06-26T13:56:29;10.20;;;8.17;;
5026;SDS011;2532;52.480;13.354;2023-06-26T13:58:56;10.80;;;8.00;;
5026;SDS011;2532;52.480;13.354;2023-06-26T14:01:24;10.00;;;7.70;;
5026;SDS011;2532;52.480;13.354;2023-06-26T14:03:51;13.63;;;8.27;;
5026;SDS011;2532;52.480;13.354;2023-06-26T14:06:18;11.07;;;8.90;;
5026;SDS011;2532;52.480;13.354;2023-06-26T14:08:46;8.97;;;7.53;;
5026;SDS011;2532;52.480;13.354;2023-06-26T14:11:13;8.23;;;7.43;;
5026;SDS011;2532;52.480;13.354;2023-06-26T14:13:41;9.27;;;7.67;;
5026;SDS011;2532;52.480;13.354;2023-06-26T14:16:08;26.03;;;8.27;;
5026;SDS011;2532;52.480;13.354;2023-06-26T14:18:35;8.70;;;6.73;;
5026;SDS011;2532;52.480;13.354;2023-06-26T14:21:02;12.20;;;7.50;;
5026;SDS011;2532;52.480;13.354;2023-06-26T14:23:29;21.23;;;7.40;;
5026;SDS011;2532;52.480;13.354;2023-06-26T14:25:57;18.17;;;6.37;;
5026;SDS011;2532;52.480;13.354;2023-06-26T14:28:24;10.53;;;5.70;;
5026;SDS011;2532;52.480;13.354;2023-06-26T14:30:51;10.77;;;5.50;;
5026;SDS011;2532;52.480;13.354;2023-06-26T14:33:18;13.43;;;5.73;;
5026;SDS011;2532;52.480;13.354;2023-06-26T14:35:45;8.87;;;5.87;;
5026;SDS011;2532;52.480;13.354;2023-06-26T14:38:15;10.30;;;7.67;;
5026;SDS011;2532;52.480;13.354;2023-06-26T14:40:42;9.87;;;7.50;;
5026;SDS011;2532;52.480;13.354;2023-06-26T14:43:10;11.60;;;7.60;;
5026;SDS011;2532;52.480;13.354;2023-06-26T14:45:37;14.30;;;8.43;;
5026;SDS011;2532;52.480;13.354;2023-06-26T14:48:04;11.00;;;8.80;;
5026;SDS011;2532;52.480;13.354;2023-06-26T14:50:32;13.20;;;8.50;;
5026;SDS011;2532;52.480;13.354;2023-06-26T14:52:58;16.73;;;10.70;;
5026;SDS011;2532;52.480;13.354;2023-06-26T14:55:25;19.23;;;10.50;;
5026;SDS011;2532;52.480;13.354;2023-06-26T14:57:52;18.00;;;11.10;;
5026;SDS011;2532;52.480;13.354;2023-06-26T15:00:21;16.70;;;11.67;;
5026;SDS011;2532;52.480;13.354;2023-06-26T15:02:49;16.90;;;9.40;;
5026;SDS011;2532;52.480;13.354;2023-06-26T15:05:18;13.67;;;9.40;;
5026;SDS011;2532;52.480;13.354;2023-06-26T15:07:46;10.53;;;6.77;;
5026;SDS011;2532;52.480;13.354;2023-06-26T15:10:13;12.50;;;7.43;;
5026;SDS011;2532;52.480;13.354;2023-06-26T15:12:41;13.30;;;9.00;;
5026;SDS011;2532;52.480;13.354;2023-06-26T15:15:08;10.63;;;7.43;;
5026;SDS011;2532;52.480;13.354;2023-06-26T15:17:37;9.60;;;7.80;;
5026;SDS011;2532;52.480;13.354;2023-06-26T15:20:04;11.50;;;7.73;;
5026;SDS011;2532;52.480;13.354;2023-06-26T15:22:32;10.33;;;7.40;;
5026;SDS011;2532;52.480;13.354;2023-06-26T15:24:59;12.30;;;7.00;;
5026;SDS011;2532;52.480;13.354;2023-06-26T15:27:26;11.40;;;8.27;;
5026;SDS011;2532;52.480;13.354;2023-06-26T15:29:53;14.53;;;7.40;;
5026;SDS011;2532;52.480;13.354;2023-06-26T15:32:20;11.83;;;7.90;;
5026;SDS011;2532;52.480;13.354;2023-06-26T15:34:48;12.77;;;8.80;;
5026;SDS011;2532;52.480;13.354;2023-06-26T15:37:15;14.53;;;9.80;;
5026;SDS011;2532;52.480;13.354;2023-06-26T15:39:42;10.80;;;7.70;;
5026;SDS011;2532;52.480;13.354;2023-06-26T15:42:09;9.70;;;7.57;;
5026;SDS011;2532;52.480;13.354;2023-06-26T15:44:39;9.17;;;7.50;;
5026;SDS011;2532;52.480;13.354;2023-06-26T15:47:06;13.17;;;10.30;;
5026;SDS011;2532;52.480;13.354;2023-06-26T15:49:33;9.23;;;7.57;;
5026;SDS011;2532;52.480;13.354;2023-06-26T15:52:01;16.87;;;9.70;;
5026;SDS011;2532;52.480;13.354;2023-06-26T15:54:28;9.93;;;8.20;;
5026;SDS011;2532;52.480;13.354;2023-06-26T15:56:55;12.80;;;9.20;;
5026;SDS011;2532;52.480;13.354;2023-06-26T15:59:22;14.13;;;9.80;;
5026;SDS011;2532;52.480;13.354;2023-06-26T16:01:48;12.40;;;8.70;;
5026;SDS011;2532;52.480;13.354;2023-06-26T16:04:16;15.20;;;9.93;;
5026;SDS011;2532;52.480;13.354;2023-06-26T16:06:43;12.43;;;9.53;;
5026;SDS011;2532;52.480;13.354;2023-06-26T16:09:11;13.60;;;8.77;;
5026;SDS011;2532;52.480;13.354;2023-06-26T16:11:38;13.20;;;10.70;;
5026;SDS011;2532;52.480;13.354;2023-06-26T16:14:05;14.33;;;10.20;;
5026;SDS011;2532;52.480;13.354;2023-06-26T16:16:32;11.83;;;9.67;;
5026;SDS011;2532;52.480;13.354;2023-06-26T16:18:59;13.03;;;9.53;;
5026;SDS011;2532;52.480;13.354;2023-06-26T16:21:26;13.17;;;8.23;;
5026;SDS011;2532;52.480;13.354;2023-06-26T16:23:54;10.83;;;8.27;;
5026;SDS011;2532;52.480;13.354;2023-06-26T16:26:22;13.33;;;8.93;;
5026;SDS011;2532;52.480;13.354;2023-06-26T16:28:49;10.23;;;8.13;;
5026;SDS011;2532;52.480;13.354;2023-06-26T16:31:16;15.37;;;9.77;;
5026;SDS011;2532;52.480;13.354;2023-06-26T16:33:43;12.33;;;8.80;;
5026;SDS011;2532;52.480;13.354;2023-06-26T16:36:10;14.00;;;9.40;;
5026;SDS011;2532;52.480;13.354;2023-06-26T16:38:37;10.27;;;8.33;;
5026;SDS011;2532;52.480;13.354;2023-06-26T16:41:06;12.17;;;8.00;;
5026;SDS011;2532;52.480;13.354;2023-06-26T16:43:34;10.13;;;8.00;;
5026;SDS011;2532;52.480;13.354;2023-06-26T16:46:02;12.10;;;9.30;;
5026;SDS011;2532;52.480;13.354;2023-06-26T16:48:28;12.63;;;8.47;;
5026;SDS011;2532;52.480;13.354;2023-06-26T16:50:55;13.83;;;9.03;;
5026;SDS011;2532;52.480;13.354;2023-06-26T16:53:22;13.67;;;8.70;;
5026;SDS011;2532;52.480;13.354;2023-06-26T16:55:49;11.57;;;9.20;;
5026;SDS011;2532;52.480;13.354;2023-06-26T16:58:16;12.47;;;9.43;;
5026;SDS011;2532;52.480;13.354;2023-06-26T17:00:45;15.07;;;10.23;;
5026;SDS011;2532;52.480;13.354;2023-06-26T17:03:12;13.00;;;9.30;;
5026;SDS011;2532;52.480;13.354;2023-06-26T17:05:39;18.17;;;9.80;;
5026;SDS011;2532;52.480;13.354;2023-06-26T17:08:06;12.90;;;9.20;;
5026;SDS011;2532;52.480;13.354;2023-06-26T17:10:34;12.70;;;10.17;;
5026;SDS011;2532;52.480;13.354;2023-06-26T17:13:01;10.00;;;8.40;;
5026;SDS011;2532;52.480;13.354;2023-06-26T17:15:28;11.53;;;8.87;;
5026;SDS011;2532;52.480;13.354;2023-06-26T17:17:57;14.53;;;9.97;;
5026;SDS011;2532;52.480;13.354;2023-06-26T17:20:23;11.87;;;9.10;;
5026;SDS011;2532;52.480;13.354;2023-06-26T17:22:51;11.80;;;9.47;;
5026;SDS011;2532;52.480;13.354;2023-06-26T17:25:18;12.67;;;8.33;;
5026;SDS011;2532;52.480;13.354;2023-06-26T17:27:45;12.23;;;8.30;;
5026;SDS011;2532;52.480;13.354;2023-06-26T17:30:12;18.00;;;8.00;;
5026;SDS011;2532;52.480;13.354;2023-06-26T17:32:42;11.23;;;8.00;;
5026;SDS011;2532;52.480;13.354;2023-06-26T17:35:11;12.57;;;8.30;;
5026;SDS011;2532;52.480;13.354;2023-06-26T17:37:38;13.70;;;8.17;;
5026;SDS011;2532;52.480;13.354;2023-06-26T17:40:06;20.50;;;8.03;;
5026;SDS011;2532;52.480;13.354;2023-06-26T17:42:34;13.17;;;7.60;;
5026;SDS011;2532;52.480;13.354;2023-06-26T17:45:05;10.37;;;7.23;;
5026;SDS011;2532;52.480;13.354;2023-06-26T17:47:33;9.83;;;6.90;;
5026;SDS011;2532;52.480;13.354;2023-06-26T17:50:00;12.80;;;7.63;;
5026;SDS011;2532;52.480;13.354;2023-06-26T17:52:28;11.90;;;7.50;;
5026;SDS011;2532;52.480;13.354;2023-06-26T17:54:55;11.93;;;6.40;;
5026;SDS011;2532;52.480;13.354;2023-06-26T17:57:23;8.27;;;6.30;;
5026;SDS011;2532;52.480;13.354;2023-06-26T17:59:50;13.33;;;7.10;;
5026;SDS011;2532;52.480;13.354;2023-06-26T18:02:17;10.53;;;6.80;;
5026;SDS011;2532;52.480;13.354;2023-06-26T18:04:44;12.07;;;8.60;;
5026;SDS011;2532;52.480;13.354;2023-06-26T18:07:10;11.17;;;7.43;;
5026;SDS011;2532;52.480;13.354;2023-06-26T18:09:39;9.63;;;7.67;;
5026;SDS011;2532;52.480;13.354;2023-06-26T18:12:06;11.57;;;6.70;;
5026;SDS011;2532;52.480;13.354;2023-06-26T18:14:34;13.53;;;7.37;;
5026;SDS011;2532;52.480;13.354;2023-06-26T18:17:01;14.17;;;7.00;;
5026;SDS011;2532;52.480;13.354;2023-06-26T18:19:29;15.33;;;6.87;;
5026;SDS011;2532;52.480;13.354;2023-06-26T18:21:56;11.47;;;7.27;;
5026;SDS011;2532;52.480;13.354;2023-06-26T18:24:23;13.53;;;6.43;;
5026;SDS011;2532;52.480;13.354;2023-06-26T18:26:51;13.10;;;7.90;;
5026;SDS011;2532;52.480;13.354;2023-06-26T18:29:18;14.60;;;7.70;;
5026;SDS011;2532;52.480;13.354;2023-06-26T18:31:45;10.63;;;6.90;;
5026;SDS011;2532;52.480;13.354;2023-06-26T18:34:12;11.50;;;7.13;;
5026;SDS011;2532;52.480;13.354;2023-06-26T18:36:39;10.57;;;7.23;;
5026;SDS011;2532;52.480;13.354;2023-06-26T18:39:06;9.77;;;7.30;;
5026;SDS011;2532;52.480;13.354;2023-06-26T18:41:33;13.90;;;7.40;;
5026;SDS011;2532;52.480;13.354;2023-06-26T18:44:01;10.60;;;7.10;;
5026;SDS011;2532;52.480;13.354;2023-06-26T18:46:29;10.53;;;6.97;;
5026;SDS011;2532;52.480;13.354;2023-06-26T18:48:59;9.90;;;6.60;;
5026;SDS011;2532;52.480;13.354;2023-06-26T18:51:27;12.80;;;6.80;;
5026;SDS011;2532;52.480;13.354;2023-06-26T18:53:54;12.50;;;7.40;;
5026;SDS011;2532;52.480;13.354;2023-06-26T18:56:22;10.57;;;7.27;;